Vano — SBNM — position and weather

sailwx.info

Track history (hours):
 
Tides and Currents Weather Stations Pressure Air Temp Water Temp Dewpoint Dewpoint Depression Visibility Wind Speed Wind Dir Waves Ship Positions

Vano

Last reported at 2017-Aug-23 18:27 UTC. Time now 2017-Aug-23 19:32 UTC.
Position N 59°30' E 018°51'.

Length 38 m; draft 2.5 m.

Type: Passenger vessel. MMSI: 265520400.

Date/timePositionNaut miles runAvg speedWind from/ knotsBaromVisibWave heightAir tempDewpointWater temp
2017-Aug-23 18:27N 59°30' E 018°51'0 0.0
2017-Aug-23 17:59N 59°30' E 018°51'0 0.0
2017-Aug-23 17:20N 59°30' E 018°51'0 0.0
2017-Aug-23 16:59N 59°30' E 018°51'2 4.0
2017-Aug-23 16:31N 59°28' E 018°49'5 9.1
2017-Aug-23 15:59N 59°26' E 018°41'4 4.8
2017-Aug-23 15:07N 59°24' E 018°34'3 8.7
2017-Aug-23 14:46N 59°25' E 018°29'2 8.0
2017-Aug-23 14:30N 59°26' E 018°25'7 7.0
2017-Aug-23 13:31N 59°21' E 018°15'510.6
2017-Aug-23 13:00N 59°20' E 018°05'0 0.1
2017-Aug-23 12:30N 59°20' E 018°05'0 0.0
2017-Aug-23 12:00N 59°20' E 018°05'0 0.0
2017-Aug-23 11:30N 59°20' E 018°05'0 0.0
2017-Aug-23 11:00N 59°20' E 018°05'0 0.0
2017-Aug-23 10:30N 59°20' E 018°05'0 0.0
2017-Aug-23 10:00N 59°20' E 018°05'0 0.0
2017-Aug-23 09:30N 59°20' E 018°05'0 0.0
2017-Aug-23 09:00N 59°20' E 018°05'0 0.0
2017-Aug-23 08:30N 59°20' E 018°05'0 0.0
2017-Aug-23 08:00N 59°20' E 018°05'0 0.0
2017-Aug-23 07:30N 59°20' E 018°05'0 0.0
2017-Aug-23 07:00N 59°20' E 018°05'0 0.0
2017-Aug-23 06:30N 59°20' E 018°05'0 0.0
2017-Aug-23 06:00N 59°20' E 018°05'3 5.8
2017-Aug-23 05:30N 59°19' E 018°10'611.1
2017-Aug-23 05:00N 59°23' E 018°19'2 4.3
2017-Aug-23 04:30N 59°24' E 018°23'0 0.1
2017-Aug-23 04:00N 59°24' E 018°23'1 1.5
2017-Aug-23 03:30N 59°24' E 018°21'0 0.0
2017-Aug-23 03:00N 59°24' E 018°21'0 0.0
2017-Aug-23 02:30N 59°24' E 018°21'0 0.0
2017-Aug-23 02:00N 59°24' E 018°21'0 0.0
2017-Aug-23 01:30N 59°24' E 018°21'0 0.0
2017-Aug-23 01:00N 59°24' E 018°21'0 0.0
2017-Aug-23 00:30N 59°24' E 018°21'0 0.0
2017-Aug-23 00:00N 59°24' E 018°21'0 0.0
2017-Aug-22 23:30N 59°24' E 018°21'0 0.0
2017-Aug-22 23:00N 59°24' E 018°21'0 0.0
2017-Aug-22 22:30N 59°24' E 018°21'0 0.0
2017-Aug-22 22:00N 59°24' E 018°21'0 0.0
2017-Aug-22 21:30N 59°24' E 018°21'0 0.0
2017-Aug-22 20:59N 59°24' E 018°21'0 0.0
2017-Aug-22 20:30N 59°24' E 018°21'0 0.0
2017-Aug-22 20:00N 59°24' E 018°21'0 0.0
2017-Aug-22 19:30N 59°24' E 018°21'0 0.0
2017-Aug-22 19:00N 59°24' E 018°21'0 0.0
2017-Aug-22 18:30N 59°24' E 018°21'0 0.0
2017-Aug-22 18:00N 59°24' E 018°21'0 0.0
2017-Aug-22 17:31N 59°24' E 018°21'2 3.3
2017-Aug-22 17:00N 59°23' E 018°24'2 4.2
2017-Aug-22 16:30N 59°23' E 018°20'4 8.4
2017-Aug-22 16:00N 59°21' E 018°13'5 9.3
2017-Aug-22 15:31N 59°20' E 018°04'0 0.1
2017-Aug-22 15:00N 59°20' E 018°05'0 0.0
2017-Aug-22 14:31N 59°20' E 018°05'0 0.0
2017-Aug-22 14:00N 59°20' E 018°05'0 0.0
2017-Aug-22 13:30N 59°20' E 018°05'0 0.0
2017-Aug-22 13:00N 59°20' E 018°05'0 0.0
2017-Aug-22 12:30N 59°20' E 018°05'0 0.0
2017-Aug-22 12:00N 59°20' E 018°05'0 0.0
2017-Aug-22 11:30N 59°20' E 018°05'0 0.0
2017-Aug-22 11:00N 59°20' E 018°05'0 0.0
2017-Aug-22 10:30N 59°20' E 018°05'0 0.0
2017-Aug-22 10:00N 59°20' E 018°05'0 0.0
2017-Aug-22 09:30N 59°20' E 018°05'0 0.0
2017-Aug-22 09:00N 59°20' E 018°05'0 0.0
2017-Aug-22 08:31N 59°20' E 018°05'0 0.0
2017-Aug-22 08:00N 59°20' E 018°05'0 0.0
2017-Aug-22 07:30N 59°20' E 018°05'0 0.0
2017-Aug-22 07:00N 59°20' E 018°05'0 0.0
2017-Aug-22 06:30N 59°20' E 018°05'0 0.0
2017-Aug-22 06:00N 59°20' E 018°05'0 0.0
2017-Aug-22 05:31N 59°20' E 018°05'0 0.0
2017-Aug-22 05:00N 59°20' E 018°05'0 0.0
2017-Aug-22 04:31N 59°20' E 018°05'0 0.0
2017-Aug-22 04:00N 59°20' E 018°05'0 0.0
2017-Aug-22 03:30N 59°20' E 018°05'0 0.0
2017-Aug-22 03:01N 59°20' E 018°05'0 0.0
2017-Aug-22 02:30N 59°20' E 018°05'0 0.0
2017-Aug-22 02:00N 59°20' E 018°05'0 0.0
2017-Aug-22 01:30N 59°20' E 018°05'0 0.0
2017-Aug-22 01:00N 59°20' E 018°05'0 0.0
2017-Aug-22 00:30N 59°20' E 018°05'0 0.0
2017-Aug-22 00:00N 59°20' E 018°05'0 0.0
2017-Aug-21 23:31N 59°20' E 018°05'0 0.0
2017-Aug-21 23:01N 59°20' E 018°05'0 0.0
2017-Aug-21 22:30N 59°20' E 018°05'0 0.0
2017-Aug-21 22:00N 59°20' E 018°05'0 0.0
2017-Aug-21 21:30N 59°20' E 018°05'0 0.0
2017-Aug-21 21:00N 59°20' E 018°05'0 0.0
2017-Aug-21 20:30N 59°20' E 018°05'0 0.0
2017-Aug-21 20:01N 59°20' E 018°05'0 0.0
2017-Aug-21 19:30N 59°20' E 018°05'0 0.0
2017-Aug-21 19:00N 59°20' E 018°05'0 0.0
2017-Aug-21 18:30N 59°20' E 018°05'0 0.0
2017-Aug-21 18:00N 59°20' E 018°05'0 0.0
2017-Aug-21 17:30N 59°20' E 018°05'0 0.0
2017-Aug-21 17:00N 59°20' E 018°05'0 0.0
2017-Aug-21 16:30N 59°20' E 018°05'0 0.0
2017-Aug-21 16:00N 59°20' E 018°05'0 0.0
2017-Aug-21 15:30N 59°20' E 018°05'0 0.0
2017-Aug-21 15:01N 59°20' E 018°05'0 0.0
2017-Aug-21 14:30N 59°20' E 018°05'0 0.0
2017-Aug-21 14:00N 59°20' E 018°05'0 0.0
2017-Aug-21 13:31N 59°20' E 018°05'0 0.0
2017-Aug-21 13:01N 59°20' E 018°05'0 0.0
2017-Aug-21 12:30N 59°20' E 018°05'0 0.0
2017-Aug-21 12:00N 59°20' E 018°05'0 0.0
2017-Aug-21 11:30N 59°20' E 018°05'0 0.0
2017-Aug-21 11:00N 59°20' E 018°05'0 0.0
2017-Aug-21 10:30N 59°20' E 018°05'0 0.0
2017-Aug-21 10:00N 59°20' E 018°05'0 0.0
2017-Aug-21 09:30N 59°20' E 018°05'0 0.0
2017-Aug-21 09:01N 59°20' E 018°05'0 0.0
2017-Aug-21 08:31N 59°20' E 018°05'0 0.0
2017-Aug-21 08:00N 59°20' E 018°05'0 0.0
2017-Aug-21 07:31N 59°20' E 018°05'0 0.0
2017-Aug-21 07:00N 59°20' E 018°05'0 0.0
2017-Aug-21 06:30N 59°20' E 018°05'0 0.0
2017-Aug-21 06:00N 59°20' E 018°05'0 0.0
2017-Aug-21 05:30N 59°20' E 018°05'0 0.0
2017-Aug-21 05:01N 59°20' E 018°05'0 0.0
2017-Aug-21 04:30N 59°20' E 018°05'0 0.0
2017-Aug-21 04:00N 59°20' E 018°05'0 0.0
2017-Aug-21 03:30N 59°20' E 018°05'0 0.0
2017-Aug-21 03:00N 59°20' E 018°05'0 0.0
2017-Aug-21 02:31N 59°20' E 018°05'0 0.0
2017-Aug-21 02:01N 59°20' E 018°05'0 0.0
2017-Aug-21 01:31N 59°20' E 018°05'0 0.0
2017-Aug-21 01:01N 59°20' E 018°05'0 0.0
2017-Aug-21 00:31N 59°20' E 018°05'0 0.0
2017-Aug-21 00:00N 59°20' E 018°05'0 0.0
2017-Aug-20 23:31N 59°20' E 018°05'0 0.0
2017-Aug-20 23:01N 59°20' E 018°05'0 0.0
2017-Aug-20 22:30N 59°20' E 018°05'0 0.0
2017-Aug-20 22:00N 59°20' E 018°05'0 0.0
2017-Aug-20 21:30N 59°20' E 018°05'0 0.0
2017-Aug-20 21:00N 59°20' E 018°05'0 0.0
2017-Aug-20 20:30N 59°20' E 018°05'0 0.0
2017-Aug-20 20:00N 59°20' E 018°05'0 0.0
2017-Aug-20 19:30N 59°20' E 018°05'3 5.9
2017-Aug-20 19:00N 59°19' E 018°10'713.1
2017-Aug-20 18:30N 59°23' E 018°20'3 6.7
2017-Aug-20 18:00N 59°25' E 018°26'911.2
2017-Aug-20 17:14N 59°24' E 018°42'2 3.7
2017-Aug-20 16:48N 59°23' E 018°44'2 6.0
2017-Aug-20 16:30N 59°24' E 018°47'3 5.1
2017-Aug-20 15:54N 59°24' E 018°53'3 7.5
2017-Aug-20 15:30N 59°27' E 018°55'3 6.2
2017-Aug-20 15:00N 59°28' E 018°50'916.9
2017-Aug-20 14:27N 59°25' E 018°32'512.2
2017-Aug-20 14:00N 59°24' E 018°21'5 9.8
2017-Aug-20 13:30N 59°21' E 018°15'510.6
2017-Aug-20 13:00N 59°20' E 018°05'0 0.1
2017-Aug-20 12:31N 59°20' E 018°04'0 0.0
2017-Aug-20 12:00N 59°20' E 018°04'510.1
2017-Aug-20 11:31N 59°21' E 018°14'5 9.7
2017-Aug-20 11:00N 59°24' E 018°21'3 6.0
2017-Aug-20 10:30N 59°26' E 018°27'1 1.6
2017-Aug-20 09:42N 59°25' E 018°29'1 6.2
2017-Aug-20 09:29N 59°26' E 018°26'3 6.3
2017-Aug-20 09:01N 59°24' E 018°21'5 9.3
2017-Aug-20 08:30N 59°21' E 018°15'510.6
2017-Aug-20 08:01N 59°20' E 018°04'0 0.0
2017-Aug-20 07:30N 59°20' E 018°04'0 0.0
2017-Aug-20 07:01N 59°20' E 018°04'0 0.0
2017-Aug-20 06:31N 59°20' E 018°04'0 0.0
2017-Aug-20 06:01N 59°20' E 018°04'0 0.0
2017-Aug-20 05:31N 59°20' E 018°04'0 0.0
2017-Aug-20 05:01N 59°20' E 018°04'0 0.0
2017-Aug-20 04:31N 59°20' E 018°04'0 0.0
2017-Aug-20 04:01N 59°20' E 018°04'0 0.0
2017-Aug-20 03:31N 59°20' E 018°04'0 0.0
2017-Aug-20 03:01N 59°20' E 018°04'0 0.0
2017-Aug-20 02:31N 59°20' E 018°04'0 0.0
2017-Aug-20 02:01N 59°20' E 018°04'0 0.0
2017-Aug-20 01:31N 59°20' E 018°04'0 0.0
2017-Aug-20 01:01N 59°20' E 018°04'0 0.0
2017-Aug-20 00:31N 59°20' E 018°04'0 0.0
2017-Aug-20 00:01N 59°20' E 018°04'0 0.0
2017-Aug-19 23:30N 59°20' E 018°04'0 0.0
2017-Aug-19 23:01N 59°20' E 018°04'0 0.0
2017-Aug-19 22:30N 59°20' E 018°04'0 0.0
2017-Aug-19 22:01N 59°20' E 018°04'0 0.0
2017-Aug-19 21:31N 59°20' E 018°04'0 0.0
2017-Aug-19 21:01N 59°20' E 018°04'0 0.0
2017-Aug-19 20:30N 59°20' E 018°04'0 0.0
2017-Aug-19 20:01N 59°20' E 018°04'0 0.0
2017-Aug-19 19:31N 59°20' E 018°04'0 0.0
2017-Aug-19 19:01N 59°20' E 018°04'0 0.0
2017-Aug-19 18:30N 59°20' E 018°04'0 0.0
2017-Aug-19 18:00N 59°20' E 018°04'0 0.0
2017-Aug-19 17:30N 59°20' E 018°04'0 0.0
2017-Aug-19 17:01N 59°20' E 018°04'0 0.0
2017-Aug-19 16:31N 59°20' E 018°04'4 7.1
2017-Aug-19 16:00N 59°20' E 018°12'713.1
2017-Aug-19 15:30N 59°24' E 018°21'4 8.5
2017-Aug-19 14:59N 59°26' E 018°30'7 7.2
2017-Aug-19 13:59N 59°22' E 018°42'4 5.6
2017-Aug-19 13:15N 59°23' E 018°50'2 5.8
2017-Aug-19 12:55N 59°24' E 018°53'3 6.9
2017-Aug-19 12:31N 59°27' E 018°55'0 0.2
2017-Aug-19 12:00N 59°27' E 018°55'0 0.0
2017-Aug-19 11:30N 59°27' E 018°55'0 0.0
2017-Aug-19 11:00N 59°27' E 018°55'1 2.3
2017-Aug-19 10:30N 59°25' E 018°55'3 6.0
2017-Aug-19 09:56N 59°23' E 018°51'11 5.7
2017-Aug-19 07:55N 59°25' E 018°29'2 4.8
2017-Aug-19 07:31N 59°26' E 018°25'3 6.9
2017-Aug-19 07:00N 59°23' E 018°21'714.2
2017-Aug-19 06:30N 59°19' E 018°09'2 4.7
2017-Aug-19 06:00N 59°20' E 018°05'0 0.0
2017-Aug-19 05:31N 59°20' E 018°05'0 0.0
2017-Aug-19 05:00N 59°20' E 018°05'0 0.0
2017-Aug-19 04:30N 59°20' E 018°05'0 0.0
2017-Aug-19 04:00N 59°20' E 018°05'0 0.0
2017-Aug-19 03:31N 59°20' E 018°05'0 0.0
2017-Aug-19 03:01N 59°20' E 018°05'0 0.0
2017-Aug-19 02:30N 59°20' E 018°05'0 0.0
2017-Aug-19 02:00N 59°20' E 018°05'0 0.0
2017-Aug-19 01:31N 59°20' E 018°05'0 0.0
2017-Aug-19 01:00N 59°20' E 018°05'0 0.0
2017-Aug-19 00:30N 59°20' E 018°05'0 0.0
2017-Aug-19 00:01N 59°20' E 018°05'0 0.0
2017-Aug-18 23:30N 59°20' E 018°05'0 0.0
2017-Aug-18 23:01N 59°20' E 018°05'0 0.0
2017-Aug-18 22:30N 59°20' E 018°05'0 0.0
2017-Aug-18 22:00N 59°20' E 018°05'0 0.0
2017-Aug-18 21:30N 59°20' E 018°05'0 0.0
2017-Aug-18 21:01N 59°20' E 018°05'0 0.0
2017-Aug-18 20:30N 59°20' E 018°05'2 3.4
2017-Aug-18 20:00N 59°19' E 018°08'815.1
2017-Aug-18 19:29N 59°23' E 018°20'4 7.1
2017-Aug-18 18:59N 59°25' E 018°27'612.1
2017-Aug-18 18:27N 59°26' E 018°39'3 6.6
2017-Aug-18 17:58N 59°27' E 018°45'3 6.8
2017-Aug-18 17:31N 59°29' E 018°50'3 6.4
2017-Aug-18 17:00N 59°29' E 018°43'5 8.0
2017-Aug-18 16:24N 59°26' E 018°35'3 7.8
2017-Aug-18 16:00N 59°26' E 018°29'4 9.1
2017-Aug-18 15:30N 59°24' E 018°21'5 9.0
2017-Aug-18 15:00N 59°21' E 018°15'5 5.3
2017-Aug-18 14:00N 59°20' E 018°05'0 0.0
2017-Aug-18 13:30N 59°20' E 018°05'4 7.1
2017-Aug-18 13:00N 59°20' E 018°12'613.1
2017-Aug-18 12:31N 59°24' E 018°21'4 6.9
2017-Aug-18 12:00N 59°26' E 018°26'5 8.2
2017-Aug-18 11:23N 59°27' E 018°36'4 9.5
2017-Aug-18 11:00N 59°29' E 018°42'4 8.7
2017-Aug-18 10:30N 59°30' E 018°51'4 7.6
2017-Aug-18 10:01N 59°27' E 018°55'5 5.4
2017-Aug-18 09:08N 59°23' E 018°50'2 5.7
2017-Aug-18 08:46N 59°24' E 018°47'2 4.7
2017-Aug-18 08:25N 59°23' E 018°45'2 4.0
2017-Aug-18 08:00N 59°24' E 018°42'510.3
2017-Aug-18 07:31N 59°25' E 018°32'611.1
2017-Aug-18 07:00N 59°24' E 018°21'5 9.1
2017-Aug-18 06:30N 59°21' E 018°14'510.5
2017-Aug-18 06:01N 59°20' E 018°04'0 0.0
2017-Aug-18 05:30N 59°20' E 018°04'0 0.0
2017-Aug-18 05:00N 59°20' E 018°04'0 0.0
2017-Aug-18 04:30N 59°20' E 018°04'0 0.0
2017-Aug-18 04:01N 59°20' E 018°04'0 0.0
2017-Aug-18 03:30N 59°20' E 018°04'0 0.0
2017-Aug-18 03:00N 59°20' E 018°04'0 0.0
2017-Aug-18 02:30N 59°20' E 018°04'0 0.0
2017-Aug-18 02:00N 59°20' E 018°04'0 0.0
2017-Aug-18 01:30N 59°20' E 018°04'0 0.0
2017-Aug-18 01:00N 59°20' E 018°04'0 0.0
2017-Aug-18 00:30N 59°20' E 018°04'0 0.0
2017-Aug-18 00:00N 59°20' E 018°04'0 0.0
2017-Aug-17 23:30N 59°20' E 018°04'0 0.0
2017-Aug-17 23:00N 59°20' E 018°04'0 0.0
2017-Aug-17 22:31N 59°20' E 018°04'0 0.0
2017-Aug-17 22:00N 59°20' E 018°04'0 0.0
2017-Aug-17 21:31N 59°20' E 018°04'0 0.0
2017-Aug-17 21:00N 59°20' E 018°04'0 0.0
2017-Aug-17 20:30N 59°20' E 018°04'0 0.0
2017-Aug-17 20:00N 59°20' E 018°04'0 0.0
2017-Aug-17 19:31N 59°20' E 018°04'0 0.0
2017-Aug-17 19:00N 59°20' E 018°04'0 0.0
2017-Aug-17 18:30N 59°20' E 018°04'0 0.0
2017-Aug-17 18:01N 59°20' E 018°04'0 0.0
2017-Aug-17 17:30N 59°20' E 018°04'2 3.1
2017-Aug-17 17:00N 59°19' E 018°07'611.2
2017-Aug-17 16:30N 59°22' E 018°16'4 8.6
2017-Aug-17 16:01N 59°25' E 018°22'612.0
2017-Aug-17 15:30N 59°25' E 018°34'3 5.3
2017-Aug-17 15:01N 59°27' E 018°37'510.1
2017-Aug-17 14:30N 59°29' E 018°46'2 3.5
2017-Aug-17 14:00N 59°29' E 018°50'3 5.1
2017-Aug-17 13:31N 59°27' E 018°53'3 5.4
2017-Aug-17 13:00N 59°24' E 018°53'3 5.1
2017-Aug-17 12:31N 59°23' E 018°49'2 3.2
2017-Aug-17 12:01N 59°24' E 018°47'6 7.9
2017-Aug-17 11:16N 59°24' E 018°35'313.3
2017-Aug-17 11:00N 59°25' E 018°29'4 8.5
2017-Aug-17 10:30N 59°24' E 018°21'5 9.4
2017-Aug-17 10:00N 59°21' E 018°15'510.6
2017-Aug-17 09:30N 59°20' E 018°04'0 0.0
2017-Aug-17 09:00N 59°20' E 018°05'0 0.0
2017-Aug-17 08:31N 59°20' E 018°05'0 0.3
2017-Aug-17 08:01N 59°20' E 018°05'510.1
2017-Aug-17 07:31N 59°21' E 018°14'5 9.5
2017-Aug-17 06:59N 59°24' E 018°21'4 8.8
2017-Aug-17 06:30N 59°25' E 018°29'4 7.2
2017-Aug-17 05:55N 59°24' E 018°37'3 6.2
2017-Aug-17 05:31N 59°26' E 018°40'3 5.7
2017-Aug-17 05:00N 59°27' E 018°45'4 8.6
2017-Aug-17 04:31N 59°30' E 018°51'0 0.1
2017-Aug-17 04:00N 59°30' E 018°51'0 0.0
2017-Aug-17 03:30N 59°30' E 018°51'0 0.0
2017-Aug-17 03:00N 59°30' E 018°51'0 0.0
2017-Aug-17 02:30N 59°30' E 018°51'0 0.0
2017-Aug-17 02:01N 59°30' E 018°51'0 0.0
2017-Aug-17 01:30N 59°30' E 018°51'0 0.0
2017-Aug-17 00:58N 59°30' E 018°51'0 0.0
2017-Aug-17 00:30N 59°30' E 018°51'0 0.0
2017-Aug-17 00:00N 59°30' E 018°51'0 0.0
2017-Aug-16 23:30N 59°30' E 018°51'0 0.0
2017-Aug-16 23:00N 59°30' E 018°51'0 0.0
2017-Aug-16 22:30N 59°30' E 018°51'0 0.0
2017-Aug-16 22:01N 59°30' E 018°51'0 0.0
2017-Aug-16 21:29N 59°30' E 018°51'0 0.0
2017-Aug-16 20:58N 59°30' E 018°51'0 0.0
2017-Aug-16 20:30N 59°30' E 018°51'0 0.0
2017-Aug-16 20:00N 59°30' E 018°51'0 0.0
2017-Aug-16 19:28N 59°30' E 018°51'0 0.0
2017-Aug-16 18:48N 59°30' E 018°51'0 0.0
2017-Aug-16 18:30N 59°30' E 018°51'4 7.0
2017-Aug-16 17:57N 59°28' E 018°45'4 6.7
2017-Aug-16 17:23N 59°26' E 018°38'511.3
2017-Aug-16 16:57N 59°25' E 018°29'3 7.6
2017-Aug-16 16:30N 59°26' E 018°22'3 5.3
2017-Aug-16 16:01N 59°23' E 018°21'4 8.8
2017-Aug-16 15:30N 59°21' E 018°13'5 9.2
2017-Aug-16 15:01N 59°20' E 018°04'0 0.1
2017-Aug-16 14:30N 59°20' E 018°05'0 0.0
2017-Aug-16 14:00N 59°20' E 018°05'4 8.1
2017-Aug-16 13:30N 59°20' E 018°12'611.9
2017-Aug-16 13:00N 59°24' E 018°21'4 8.2
2017-Aug-16 12:30N 59°26' E 018°28'911.3
2017-Aug-16 11:45N 59°23' E 018°43'1 2.2
2017-Aug-16 11:28N 59°23' E 018°44'2 3.4
2017-Aug-16 11:01N 59°23' E 018°47'3 5.8
2017-Aug-16 10:30N 59°24' E 018°53'3 5.6
2017-Aug-16 10:01N 59°27' E 018°55'4 7.5
2017-Aug-16 09:31N 59°29' E 018°50'3 5.4
2017-Aug-16 09:00N 59°29' E 018°44'5 9.0
2017-Aug-16 08:30N 59°27' E 018°36'5 7.7
2017-Aug-16 07:50N 59°25' E 018°26'3 8.8
2017-Aug-16 07:30N 59°24' E 018°21'5 9.4
2017-Aug-16 07:00N 59°21' E 018°15'510.7
2017-Aug-16 06:30N 59°20' E 018°04'0 0.1
2017-Aug-16 06:00N 59°20' E 018°05'0 0.0
2017-Aug-16 05:31N 59°20' E 018°05'0 0.0
2017-Aug-16 05:01N 59°20' E 018°05'0 0.0
2017-Aug-16 04:30N 59°20' E 018°05'0 0.0
2017-Aug-16 04:00N 59°20' E 018°05'0 0.0
2017-Aug-16 03:31N 59°20' E 018°05'0 0.0
2017-Aug-16 03:00N 59°20' E 018°05'0 0.0
2017-Aug-16 02:30N 59°20' E 018°05'0 0.0
2017-Aug-16 02:01N 59°20' E 018°05'0 0.0
2017-Aug-16 01:31N 59°20' E 018°05'0 0.0
2017-Aug-16 01:01N 59°20' E 018°05'0 0.0
2017-Aug-16 00:31N 59°20' E 018°05'0 0.0
2017-Aug-16 00:00N 59°20' E 018°05'0 0.0
2017-Aug-15 23:31N 59°20' E 018°05'0 0.0
2017-Aug-15 23:01N 59°20' E 018°05'0 0.0
2017-Aug-15 22:30N 59°20' E 018°05'0 0.0
2017-Aug-15 22:01N 59°20' E 018°05'0 0.0
2017-Aug-15 21:30N 59°20' E 018°05'0 0.0
2017-Aug-15 21:00N 59°20' E 018°05'0 0.0
2017-Aug-15 20:30N 59°20' E 018°05'5 9.1
2017-Aug-15 20:00N 59°20' E 018°13'511.0
2017-Aug-15 19:31N 59°24' E 018°21'4 7.6
2017-Aug-15 19:00N 59°25' E 018°28'510.5
2017-Aug-15 18:31N 59°26' E 018°39'2 3.6
2017-Aug-15 18:00N 59°26' E 018°42'5 9.1
2017-Aug-15 17:31N 59°29' E 018°50'3 5.7
2017-Aug-15 17:01N 59°29' E 018°44'4 7.9
2017-Aug-15 16:30N 59°28' E 018°37'4 7.3
2017-Aug-15 16:00N 59°26' E 018°31'5 9.9
2017-Aug-15 15:30N 59°24' E 018°21'5 9.3
2017-Aug-15 15:00N 59°21' E 018°15'510.7
2017-Aug-15 14:31N 59°20' E 018°04'0 0.1
2017-Aug-15 14:01N 59°20' E 018°04'0 0.0
2017-Aug-15 13:31N 59°20' E 018°04'0 0.0
2017-Aug-15 13:01N 59°20' E 018°04'0 0.0
2017-Aug-15 12:31N 59°20' E 018°04'0 0.0
2017-Aug-15 12:01N 59°20' E 018°04'0 0.0
2017-Aug-15 11:30N 59°20' E 018°04'0 0.0
2017-Aug-15 11:01N 59°20' E 018°04'0 0.0
2017-Aug-15 10:30N 59°20' E 018°04'0 0.0
2017-Aug-15 10:01N 59°20' E 018°04'0 0.0
2017-Aug-15 09:30N 59°20' E 018°04'0 0.0
2017-Aug-15 09:00N 59°20' E 018°04'0 0.0
2017-Aug-15 08:30N 59°20' E 018°04'3 5.3
2017-Aug-15 08:01N 59°19' E 018°10'612.1
2017-Aug-15 07:30N 59°22' E 018°20'3 6.5
2017-Aug-15 07:00N 59°25' E 018°22'4 8.5
2017-Aug-15 06:30N 59°25' E 018°30'712.4
2017-Aug-15 05:55N 59°23' E 018°44'2 5.8
2017-Aug-15 05:31N 59°24' E 018°47'3 5.9
2017-Aug-15 05:00N 59°23' E 018°52'4 7.1
2017-Aug-15 04:30N 59°26' E 018°56'0 0.8
2017-Aug-15 04:00N 59°27' E 018°55'0 0.0
2017-Aug-15 03:30N 59°27' E 018°55'0 0.0
2017-Aug-15 03:00N 59°27' E 018°55'0 0.0
2017-Aug-15 02:30N 59°27' E 018°55'0 0.0
2017-Aug-15 02:00N 59°27' E 018°55'0 0.0
2017-Aug-15 01:30N 59°27' E 018°55'0 0.0
2017-Aug-15 01:00N 59°27' E 018°55'0 0.0
2017-Aug-15 00:30N 59°27' E 018°55'0 0.0
2017-Aug-15 00:00N 59°27' E 018°55'0 0.0
2017-Aug-14 23:30N 59°27' E 018°55'0 0.0
2017-Aug-14 23:00N 59°27' E 018°55'0 0.0
2017-Aug-14 22:30N 59°27' E 018°55'0 0.0
2017-Aug-14 22:00N 59°27' E 018°55'0 0.0
2017-Aug-14 21:30N 59°27' E 018°55'0 0.0
2017-Aug-14 21:00N 59°27' E 018°55'0 0.0
2017-Aug-14 20:30N 59°27' E 018°55'0 0.0
2017-Aug-14 20:01N 59°27' E 018°55'0 0.0
2017-Aug-14 19:30N 59°27' E 018°55'0 0.0
2017-Aug-14 19:00N 59°27' E 018°55'0 0.0
2017-Aug-14 18:30N 59°27' E 018°55'0 0.0
2017-Aug-14 18:00N 59°27' E 018°55'0 0.0
2017-Aug-14 17:30N 59°27' E 018°55'1 2.4
2017-Aug-14 17:01N 59°25' E 018°55'3 6.3
2017-Aug-14 16:31N 59°22' E 018°53'3 6.4
2017-Aug-14 16:01N 59°24' E 018°47'3 5.1
2017-Aug-14 15:30N 59°24' E 018°42'713.5
2017-Aug-14 15:00N 59°25' E 018°29'4 8.5
2017-Aug-14 14:30N 59°24' E 018°21'5 9.4
2017-Aug-14 14:00N 59°21' E 018°15'510.5
2017-Aug-14 13:30N 59°20' E 018°04'0 0.1
2017-Aug-14 13:00N 59°20' E 018°05'3 5.3
2017-Aug-14 12:30N 59°19' E 018°10'612.3
2017-Aug-14 12:00N 59°22' E 018°21'4 7.1
2017-Aug-14 11:30N 59°25' E 018°21'4 8.2
2017-Aug-14 11:00N 59°28' E 018°27'3 6.1
2017-Aug-14 10:30N 59°30' E 018°32'1 3.0
2017-Aug-14 10:00N 59°29' E 018°30'3 5.5
2017-Aug-14 09:30N 59°28' E 018°25'4 8.3
2017-Aug-14 09:00N 59°24' E 018°21'3 5.2
2017-Aug-14 08:30N 59°22' E 018°19'612.3
2017-Aug-14 08:00N 59°19' E 018°09'2 4.5
2017-Aug-14 07:31N 59°20' E 018°04'0 0.0
2017-Aug-14 07:01N 59°20' E 018°04'0 0.0
2017-Aug-14 06:31N 59°20' E 018°04'0 0.0
2017-Aug-14 06:00N 59°20' E 018°04'3 6.4
2017-Aug-14 05:31N 59°20' E 018°11'510.4
2017-Aug-14 05:00N 59°23' E 018°19'2 4.2
2017-Aug-14 04:30N 59°24' E 018°22'3 5.4
2017-Aug-14 04:01N 59°22' E 018°27'3 6.7
2017-Aug-14 03:30N 59°24' E 018°21'0 0.0
2017-Aug-14 03:00N 59°24' E 018°21'0 0.0
2017-Aug-14 02:30N 59°24' E 018°21'0 0.0
2017-Aug-14 02:00N 59°24' E 018°21'0 0.0
2017-Aug-14 01:29N 59°24' E 018°21'0 0.0
2017-Aug-14 01:00N 59°24' E 018°21'0 0.0
2017-Aug-14 00:30N 59°24' E 018°21'0 0.0
2017-Aug-14 00:00N 59°24' E 018°21'0 0.0
2017-Aug-13 23:30N 59°24' E 018°21'0 0.0
2017-Aug-13 23:00N 59°24' E 018°21'0 0.0
2017-Aug-13 22:30N 59°24' E 018°21'0 0.0
2017-Aug-13 22:00N 59°24' E 018°21'0 0.0
2017-Aug-13 21:30N 59°24' E 018°21'0 0.0
2017-Aug-13 21:00N 59°24' E 018°21'0 0.0
2017-Aug-13 20:30N 59°24' E 018°21'2 4.2
2017-Aug-13 20:00N 59°23' E 018°18'815.2
2017-Aug-13 19:30N 59°19' E 018°05'3 6.8
2017-Aug-13 19:00N 59°20' E 018°11'611.9
2017-Aug-13 18:30N 59°24' E 018°21'  
Track history (hours):
 
Tides and Currents Weather Stations Pressure Air Temp Water Temp Dewpoint Dewpoint Depression Visibility Wind Speed Wind Dir Waves Ship Positions

Vano

Last reported at 2017-Aug-23 18:27 UTC. Time now 2017-Aug-23 19:32 UTC.
Position N 59°30' E 018°51'.

Length 38 m; draft 2.5 m.

Type: Passenger vessel. MMSI: 265520400.

Date/timePositionNaut miles runAvg speedWind from/ knotsBaromVisibWave heightAir tempDewpointWater temp
2017-Aug-23 18:27N 59°30' E 018°51'0 0.0
2017-Aug-23 17:59N 59°30' E 018°51'0 0.0
2017-Aug-23 17:20N 59°30' E 018°51'0 0.0
2017-Aug-23 16:59N 59°30' E 018°51'2 4.0
2017-Aug-23 16:31N 59°28' E 018°49'5 9.1
2017-Aug-23 15:59N 59°26' E 018°41'4 4.8
2017-Aug-23 15:07N 59°24' E 018°34'3 8.7
2017-Aug-23 14:46N 59°25' E 018°29'2 8.0
2017-Aug-23 14:30N 59°26' E 018°25'7 7.0
2017-Aug-23 13:31N 59°21' E 018°15'510.6
2017-Aug-23 13:00N 59°20' E 018°05'0 0.1
2017-Aug-23 12:30N 59°20' E 018°05'0 0.0
2017-Aug-23 12:00N 59°20' E 018°05'0 0.0
2017-Aug-23 11:30N 59°20' E 018°05'0 0.0
2017-Aug-23 11:00N 59°20' E 018°05'0 0.0
2017-Aug-23 10:30N 59°20' E 018°05'0 0.0
2017-Aug-23 10:00N 59°20' E 018°05'0 0.0
2017-Aug-23 09:30N 59°20' E 018°05'0 0.0
2017-Aug-23 09:00N 59°20' E 018°05'0 0.0
2017-Aug-23 08:30N 59°20' E 018°05'0 0.0
2017-Aug-23 08:00N 59°20' E 018°05'0 0.0
2017-Aug-23 07:30N 59°20' E 018°05'0 0.0
2017-Aug-23 07:00N 59°20' E 018°05'0 0.0
2017-Aug-23 06:30N 59°20' E 018°05'0 0.0
2017-Aug-23 06:00N 59°20' E 018°05'3 5.8
2017-Aug-23 05:30N 59°19' E 018°10'611.1
2017-Aug-23 05:00N 59°23' E 018°19'2 4.3
2017-Aug-23 04:30N 59°24' E 018°23'0 0.1
2017-Aug-23 04:00N 59°24' E 018°23'1 1.5
2017-Aug-23 03:30N 59°24' E 018°21'0 0.0
2017-Aug-23 03:00N 59°24' E 018°21'0 0.0
2017-Aug-23 02:30N 59°24' E 018°21'0 0.0
2017-Aug-23 02:00N 59°24' E 018°21'0 0.0
2017-Aug-23 01:30N 59°24' E 018°21'0 0.0
2017-Aug-23 01:00N 59°24' E 018°21'0 0.0
2017-Aug-23 00:30N 59°24' E 018°21'0 0.0
2017-Aug-23 00:00N 59°24' E 018°21'0 0.0
2017-Aug-22 23:30N 59°24' E 018°21'0 0.0
2017-Aug-22 23:00N 59°24' E 018°21'0 0.0
2017-Aug-22 22:30N 59°24' E 018°21'0 0.0
2017-Aug-22 22:00N 59°24' E 018°21'0 0.0
2017-Aug-22 21:30N 59°24' E 018°21'0 0.0
2017-Aug-22 20:59N 59°24' E 018°21'0 0.0
2017-Aug-22 20:30N 59°24' E 018°21'0 0.0
2017-Aug-22 20:00N 59°24' E 018°21'0 0.0
2017-Aug-22 19:30N 59°24' E 018°21'0 0.0
2017-Aug-22 19:00N 59°24' E 018°21'0 0.0
2017-Aug-22 18:30N 59°24' E 018°21'0 0.0
2017-Aug-22 18:00N 59°24' E 018°21'0 0.0
2017-Aug-22 17:31N 59°24' E 018°21'2 3.3
2017-Aug-22 17:00N 59°23' E 018°24'2 4.2
2017-Aug-22 16:30N 59°23' E 018°20'4 8.4
2017-Aug-22 16:00N 59°21' E 018°13'5 9.3
2017-Aug-22 15:31N 59°20' E 018°04'0 0.1
2017-Aug-22 15:00N 59°20' E 018°05'0 0.0
2017-Aug-22 14:31N 59°20' E 018°05'0 0.0
2017-Aug-22 14:00N 59°20' E 018°05'0 0.0
2017-Aug-22 13:30N 59°20' E 018°05'0 0.0
2017-Aug-22 13:00N 59°20' E 018°05'0 0.0
2017-Aug-22 12:30N 59°20' E 018°05'0 0.0
2017-Aug-22 12:00N 59°20' E 018°05'0 0.0
2017-Aug-22 11:30N 59°20' E 018°05'0 0.0
2017-Aug-22 11:00N 59°20' E 018°05'0 0.0
2017-Aug-22 10:30N 59°20' E 018°05'0 0.0
2017-Aug-22 10:00N 59°20' E 018°05'0 0.0
2017-Aug-22 09:30N 59°20' E 018°05'0 0.0
2017-Aug-22 09:00N 59°20' E 018°05'0 0.0
2017-Aug-22 08:31N 59°20' E 018°05'0 0.0
2017-Aug-22 08:00N 59°20' E 018°05'0 0.0
2017-Aug-22 07:30N 59°20' E 018°05'0 0.0
2017-Aug-22 07:00N 59°20' E 018°05'0 0.0
2017-Aug-22 06:30N 59°20' E 018°05'0 0.0
2017-Aug-22 06:00N 59°20' E 018°05'0 0.0
2017-Aug-22 05:31N 59°20' E 018°05'0 0.0
2017-Aug-22 05:00N 59°20' E 018°05'0 0.0
2017-Aug-22 04:31N 59°20' E 018°05'0 0.0
2017-Aug-22 04:00N 59°20' E 018°05'0 0.0
2017-Aug-22 03:30N 59°20' E 018°05'0 0.0
2017-Aug-22 03:01N 59°20' E 018°05'0 0.0
2017-Aug-22 02:30N 59°20' E 018°05'0 0.0
2017-Aug-22 02:00N 59°20' E 018°05'0 0.0
2017-Aug-22 01:30N 59°20' E 018°05'0 0.0
2017-Aug-22 01:00N 59°20' E 018°05'0 0.0
2017-Aug-22 00:30N 59°20' E 018°05'0 0.0
2017-Aug-22 00:00N 59°20' E 018°05'0 0.0
2017-Aug-21 23:31N 59°20' E 018°05'0 0.0
2017-Aug-21 23:01N 59°20' E 018°05'0 0.0
2017-Aug-21 22:30N 59°20' E 018°05'0 0.0
2017-Aug-21 22:00N 59°20' E 018°05'0 0.0
2017-Aug-21 21:30N 59°20' E 018°05'0 0.0
2017-Aug-21 21:00N 59°20' E 018°05'0 0.0
2017-Aug-21 20:30N 59°20' E 018°05'0 0.0
2017-Aug-21 20:01N 59°20' E 018°05'0 0.0
2017-Aug-21 19:30N 59°20' E 018°05'0 0.0
2017-Aug-21 19:00N 59°20' E 018°05'0 0.0
2017-Aug-21 18:30N 59°20' E 018°05'0 0.0
2017-Aug-21 18:00N 59°20' E 018°05'0 0.0
2017-Aug-21 17:30N 59°20' E 018°05'0 0.0
2017-Aug-21 17:00N 59°20' E 018°05'0 0.0
2017-Aug-21 16:30N 59°20' E 018°05'0 0.0
2017-Aug-21 16:00N 59°20' E 018°05'0 0.0
2017-Aug-21 15:30N 59°20' E 018°05'0 0.0
2017-Aug-21 15:01N 59°20' E 018°05'0 0.0
2017-Aug-21 14:30N 59°20' E 018°05'0 0.0
2017-Aug-21 14:00N 59°20' E 018°05'0 0.0
2017-Aug-21 13:31N 59°20' E 018°05'0 0.0
2017-Aug-21 13:01N 59°20' E 018°05'0 0.0
2017-Aug-21 12:30N 59°20' E 018°05'0 0.0
2017-Aug-21 12:00N 59°20' E 018°05'0 0.0
2017-Aug-21 11:30N 59°20' E 018°05'0 0.0
2017-Aug-21 11:00N 59°20' E 018°05'0 0.0
2017-Aug-21 10:30N 59°20' E 018°05'0 0.0
2017-Aug-21 10:00N 59°20' E 018°05'0 0.0
2017-Aug-21 09:30N 59°20' E 018°05'0 0.0
2017-Aug-21 09:01N 59°20' E 018°05'0 0.0
2017-Aug-21 08:31N 59°20' E 018°05'0 0.0
2017-Aug-21 08:00N 59°20' E 018°05'0 0.0
2017-Aug-21 07:31N 59°20' E 018°05'0 0.0
2017-Aug-21 07:00N 59°20' E 018°05'0 0.0
2017-Aug-21 06:30N 59°20' E 018°05'0 0.0
2017-Aug-21 06:00N 59°20' E 018°05'0 0.0
2017-Aug-21 05:30N 59°20' E 018°05'0 0.0
2017-Aug-21 05:01N 59°20' E 018°05'0 0.0
2017-Aug-21 04:30N 59°20' E 018°05'0 0.0
2017-Aug-21 04:00N 59°20' E 018°05'0 0.0
2017-Aug-21 03:30N 59°20' E 018°05'0 0.0
2017-Aug-21 03:00N 59°20' E 018°05'0 0.0
2017-Aug-21 02:31N 59°20' E 018°05'0 0.0
2017-Aug-21 02:01N 59°20' E 018°05'0 0.0
2017-Aug-21 01:31N 59°20' E 018°05'0 0.0
2017-Aug-21 01:01N 59°20' E 018°05'0 0.0
2017-Aug-21 00:31N 59°20' E 018°05'0 0.0
2017-Aug-21 00:00N 59°20' E 018°05'0 0.0
2017-Aug-20 23:31N 59°20' E 018°05'0 0.0
2017-Aug-20 23:01N 59°20' E 018°05'0 0.0
2017-Aug-20 22:30N 59°20' E 018°05'0 0.0
2017-Aug-20 22:00N 59°20' E 018°05'0 0.0
2017-Aug-20 21:30N 59°20' E 018°05'0 0.0
2017-Aug-20 21:00N 59°20' E 018°05'0 0.0
2017-Aug-20 20:30N 59°20' E 018°05'0 0.0
2017-Aug-20 20:00N 59°20' E 018°05'0 0.0
2017-Aug-20 19:30N 59°20' E 018°05'3 5.9
2017-Aug-20 19:00N 59°19' E 018°10'713.1
2017-Aug-20 18:30N 59°23' E 018°20'3 6.7
2017-Aug-20 18:00N 59°25' E 018°26'911.2
2017-Aug-20 17:14N 59°24' E 018°42'2 3.7
2017-Aug-20 16:48N 59°23' E 018°44'2 6.0
2017-Aug-20 16:30N 59°24' E 018°47'3 5.1
2017-Aug-20 15:54N 59°24' E 018°53'3 7.5
2017-Aug-20 15:30N 59°27' E 018°55'3 6.2
2017-Aug-20 15:00N 59°28' E 018°50'916.9
2017-Aug-20 14:27N 59°25' E 018°32'512.2
2017-Aug-20 14:00N 59°24' E 018°21'5 9.8
2017-Aug-20 13:30N 59°21' E 018°15'510.6
2017-Aug-20 13:00N 59°20' E 018°05'0 0.1
2017-Aug-20 12:31N 59°20' E 018°04'0 0.0
2017-Aug-20 12:00N 59°20' E 018°04'510.1
2017-Aug-20 11:31N 59°21' E 018°14'5 9.7
2017-Aug-20 11:00N 59°24' E 018°21'3 6.0
2017-Aug-20 10:30N 59°26' E 018°27'1 1.6
2017-Aug-20 09:42N 59°25' E 018°29'1 6.2
2017-Aug-20 09:29N 59°26' E 018°26'3 6.3
2017-Aug-20 09:01N 59°24' E 018°21'5 9.3
2017-Aug-20 08:30N 59°21' E 018°15'510.6
2017-Aug-20 08:01N 59°20' E 018°04'0 0.0
2017-Aug-20 07:30N 59°20' E 018°04'0 0.0
2017-Aug-20 07:01N 59°20' E 018°04'0 0.0
2017-Aug-20 06:31N 59°20' E 018°04'0 0.0
2017-Aug-20 06:01N 59°20' E 018°04'0 0.0
2017-Aug-20 05:31N 59°20' E 018°04'0 0.0
2017-Aug-20 05:01N 59°20' E 018°04'0 0.0
2017-Aug-20 04:31N 59°20' E 018°04'0 0.0
2017-Aug-20 04:01N 59°20' E 018°04'0 0.0
2017-Aug-20 03:31N 59°20' E 018°04'0 0.0
2017-Aug-20 03:01N 59°20' E 018°04'0 0.0
2017-Aug-20 02:31N 59°20' E 018°04'0 0.0
2017-Aug-20 02:01N 59°20' E 018°04'0 0.0
2017-Aug-20 01:31N 59°20' E 018°04'0 0.0
2017-Aug-20 01:01N 59°20' E 018°04'0 0.0
2017-Aug-20 00:31N 59°20' E 018°04'0 0.0
2017-Aug-20 00:01N 59°20' E 018°04'0 0.0
2017-Aug-19 23:30N 59°20' E 018°04'0 0.0
2017-Aug-19 23:01N 59°20' E 018°04'0 0.0
2017-Aug-19 22:30N 59°20' E 018°04'0 0.0
2017-Aug-19 22:01N 59°20' E 018°04'0 0.0
2017-Aug-19 21:31N 59°20' E 018°04'0 0.0
2017-Aug-19 21:01N 59°20' E 018°04'0 0.0
2017-Aug-19 20:30N 59°20' E 018°04'0 0.0
2017-Aug-19 20:01N 59°20' E 018°04'0 0.0
2017-Aug-19 19:31N 59°20' E 018°04'0 0.0
2017-Aug-19 19:01N 59°20' E 018°04'0 0.0
2017-Aug-19 18:30N 59°20' E 018°04'0 0.0
2017-Aug-19 18:00N 59°20' E 018°04'0 0.0
2017-Aug-19 17:30N 59°20' E 018°04'0 0.0
2017-Aug-19 17:01N 59°20' E 018°04'0 0.0
2017-Aug-19 16:31N 59°20' E 018°04'4 7.1
2017-Aug-19 16:00N 59°20' E 018°12'713.1
2017-Aug-19 15:30N 59°24' E 018°21'4 8.5
2017-Aug-19 14:59N 59°26' E 018°30'7 7.2
2017-Aug-19 13:59N 59°22' E 018°42'4 5.6
2017-Aug-19 13:15N 59°23' E 018°50'2 5.8
2017-Aug-19 12:55N 59°24' E 018°53'3 6.9
2017-Aug-19 12:31N 59°27' E 018°55'0 0.2
2017-Aug-19 12:00N 59°27' E 018°55'0 0.0
2017-Aug-19 11:30N 59°27' E 018°55'0 0.0
2017-Aug-19 11:00N 59°27' E 018°55'1 2.3
2017-Aug-19 10:30N 59°25' E 018°55'3 6.0
2017-Aug-19 09:56N 59°23' E 018°51'11 5.7
2017-Aug-19 07:55N 59°25' E 018°29'2 4.8
2017-Aug-19 07:31N 59°26' E 018°25'3 6.9
2017-Aug-19 07:00N 59°23' E 018°21'714.2
2017-Aug-19 06:30N 59°19' E 018°09'2 4.7
2017-Aug-19 06:00N 59°20' E 018°05'0 0.0
2017-Aug-19 05:31N 59°20' E 018°05'0 0.0
2017-Aug-19 05:00N 59°20' E 018°05'0 0.0
2017-Aug-19 04:30N 59°20' E 018°05'0 0.0
2017-Aug-19 04:00N 59°20' E 018°05'0 0.0
2017-Aug-19 03:31N 59°20' E 018°05'0 0.0
2017-Aug-19 03:01N 59°20' E 018°05'0 0.0
2017-Aug-19 02:30N 59°20' E 018°05'0 0.0
2017-Aug-19 02:00N 59°20' E 018°05'0 0.0
2017-Aug-19 01:31N 59°20' E 018°05'0 0.0
2017-Aug-19 01:00N 59°20' E 018°05'0 0.0
2017-Aug-19 00:30N 59°20' E 018°05'0 0.0
2017-Aug-19 00:01N 59°20' E 018°05'0 0.0
2017-Aug-18 23:30N 59°20' E 018°05'0 0.0
2017-Aug-18 23:01N 59°20' E 018°05'0 0.0
2017-Aug-18 22:30N 59°20' E 018°05'0 0.0
2017-Aug-18 22:00N 59°20' E 018°05'0 0.0
2017-Aug-18 21:30N 59°20' E 018°05'0 0.0
2017-Aug-18 21:01N 59°20' E 018°05'0 0.0
2017-Aug-18 20:30N 59°20' E 018°05'2 3.4
2017-Aug-18 20:00N 59°19' E 018°08'815.1
2017-Aug-18 19:29N 59°23' E 018°20'4 7.1
2017-Aug-18 18:59N 59°25' E 018°27'612.1
2017-Aug-18 18:27N 59°26' E 018°39'3 6.6
2017-Aug-18 17:58N 59°27' E 018°45'3 6.8
2017-Aug-18 17:31N 59°29' E 018°50'3 6.4
2017-Aug-18 17:00N 59°29' E 018°43'5 8.0
2017-Aug-18 16:24N 59°26' E 018°35'3 7.8
2017-Aug-18 16:00N 59°26' E 018°29'4 9.1
2017-Aug-18 15:30N 59°24' E 018°21'5 9.0
2017-Aug-18 15:00N 59°21' E 018°15'5 5.3
2017-Aug-18 14:00N 59°20' E 018°05'0 0.0
2017-Aug-18 13:30N 59°20' E 018°05'4 7.1
2017-Aug-18 13:00N 59°20' E 018°12'613.1
2017-Aug-18 12:31N 59°24' E 018°21'4 6.9
2017-Aug-18 12:00N 59°26' E 018°26'5 8.2
2017-Aug-18 11:23N 59°27' E 018°36'4 9.5
2017-Aug-18 11:00N 59°29' E 018°42'4 8.7
2017-Aug-18 10:30N 59°30' E 018°51'4 7.6
2017-Aug-18 10:01N 59°27' E 018°55'5 5.4
2017-Aug-18 09:08N 59°23' E 018°50'2 5.7
2017-Aug-18 08:46N 59°24' E 018°47'2 4.7
2017-Aug-18 08:25N 59°23' E 018°45'2 4.0
2017-Aug-18 08:00N 59°24' E 018°42'510.3
2017-Aug-18 07:31N 59°25' E 018°32'611.1
2017-Aug-18 07:00N 59°24' E 018°21'5 9.1
2017-Aug-18 06:30N 59°21' E 018°14'510.5
2017-Aug-18 06:01N 59°20' E 018°04'0 0.0
2017-Aug-18 05:30N 59°20' E 018°04'0 0.0
2017-Aug-18 05:00N 59°20' E 018°04'0 0.0
2017-Aug-18 04:30N 59°20' E 018°04'0 0.0
2017-Aug-18 04:01N 59°20' E 018°04'0 0.0
2017-Aug-18 03:30N 59°20' E 018°04'0 0.0
2017-Aug-18 03:00N 59°20' E 018°04'0 0.0
2017-Aug-18 02:30N 59°20' E 018°04'0 0.0
2017-Aug-18 02:00N 59°20' E 018°04'0 0.0
2017-Aug-18 01:30N 59°20' E 018°04'0 0.0
2017-Aug-18 01:00N 59°20' E 018°04'0 0.0
2017-Aug-18 00:30N 59°20' E 018°04'0 0.0
2017-Aug-18 00:00N 59°20' E 018°04'0 0.0
2017-Aug-17 23:30N 59°20' E 018°04'0 0.0
2017-Aug-17 23:00N 59°20' E 018°04'0 0.0
2017-Aug-17 22:31N 59°20' E 018°04'0 0.0
2017-Aug-17 22:00N 59°20' E 018°04'0 0.0
2017-Aug-17 21:31N 59°20' E 018°04'0 0.0
2017-Aug-17 21:00N 59°20' E 018°04'0 0.0
2017-Aug-17 20:30N 59°20' E 018°04'0 0.0
2017-Aug-17 20:00N 59°20' E 018°04'0 0.0
2017-Aug-17 19:31N 59°20' E 018°04'0 0.0
2017-Aug-17 19:00N 59°20' E 018°04'0 0.0
2017-Aug-17 18:30N 59°20' E 018°04'0 0.0
2017-Aug-17 18:01N 59°20' E 018°04'0 0.0
2017-Aug-17 17:30N 59°20' E 018°04'2 3.1
2017-Aug-17 17:00N 59°19' E 018°07'611.2
2017-Aug-17 16:30N 59°22' E 018°16'4 8.6
2017-Aug-17 16:01N 59°25' E 018°22'612.0
2017-Aug-17 15:30N 59°25' E 018°34'3 5.3
2017-Aug-17 15:01N 59°27' E 018°37'510.1
2017-Aug-17 14:30N 59°29' E 018°46'2 3.5
2017-Aug-17 14:00N 59°29' E 018°50'3 5.1
2017-Aug-17 13:31N 59°27' E 018°53'3 5.4
2017-Aug-17 13:00N 59°24' E 018°53'3 5.1
2017-Aug-17 12:31N 59°23' E 018°49'2 3.2
2017-Aug-17 12:01N 59°24' E 018°47'6 7.9
2017-Aug-17 11:16N 59°24' E 018°35'313.3
2017-Aug-17 11:00N 59°25' E 018°29'4 8.5
2017-Aug-17 10:30N 59°24' E 018°21'5 9.4
2017-Aug-17 10:00N 59°21' E 018°15'510.6
2017-Aug-17 09:30N 59°20' E 018°04'0 0.0
2017-Aug-17 09:00N 59°20' E 018°05'0 0.0
2017-Aug-17 08:31N 59°20' E 018°05'0 0.3
2017-Aug-17 08:01N 59°20' E 018°05'510.1
2017-Aug-17 07:31N 59°21' E 018°14'5 9.5
2017-Aug-17 06:59N 59°24' E 018°21'4 8.8
2017-Aug-17 06:30N 59°25' E 018°29'4 7.2
2017-Aug-17 05:55N 59°24' E 018°37'3 6.2
2017-Aug-17 05:31N 59°26' E 018°40'3 5.7
2017-Aug-17 05:00N 59°27' E 018°45'4 8.6
2017-Aug-17 04:31N 59°30' E 018°51'0 0.1
2017-Aug-17 04:00N 59°30' E 018°51'0 0.0
2017-Aug-17 03:30N 59°30' E 018°51'0 0.0
2017-Aug-17 03:00N 59°30' E 018°51'0 0.0
2017-Aug-17 02:30N 59°30' E 018°51'0 0.0
2017-Aug-17 02:01N 59°30' E 018°51'0 0.0
2017-Aug-17 01:30N 59°30' E 018°51'0 0.0
2017-Aug-17 00:58N 59°30' E 018°51'0 0.0
2017-Aug-17 00:30N 59°30' E 018°51'0 0.0
2017-Aug-17 00:00N 59°30' E 018°51'0 0.0
2017-Aug-16 23:30N 59°30' E 018°51'0 0.0
2017-Aug-16 23:00N 59°30' E 018°51'0 0.0
2017-Aug-16 22:30N 59°30' E 018°51'0 0.0
2017-Aug-16 22:01N 59°30' E 018°51'0 0.0
2017-Aug-16 21:29N 59°30' E 018°51'0 0.0
2017-Aug-16 20:58N 59°30' E 018°51'0 0.0
2017-Aug-16 20:30N 59°30' E 018°51'0 0.0
2017-Aug-16 20:00N 59°30' E 018°51'0 0.0
2017-Aug-16 19:28N 59°30' E 018°51'0 0.0
2017-Aug-16 18:48N 59°30' E 018°51'0 0.0
2017-Aug-16 18:30N 59°30' E 018°51'4 7.0
2017-Aug-16 17:57N 59°28' E 018°45'4 6.7
2017-Aug-16 17:23N 59°26' E 018°38'511.3
2017-Aug-16 16:57N 59°25' E 018°29'3 7.6
2017-Aug-16 16:30N 59°26' E 018°22'3 5.3
2017-Aug-16 16:01N 59°23' E 018°21'4 8.8
2017-Aug-16 15:30N 59°21' E 018°13'5 9.2
2017-Aug-16 15:01N 59°20' E 018°04'0 0.1
2017-Aug-16 14:30N 59°20' E 018°05'0 0.0
2017-Aug-16 14:00N 59°20' E 018°05'4 8.1
2017-Aug-16 13:30N 59°20' E 018°12'611.9
2017-Aug-16 13:00N 59°24' E 018°21'4 8.2
2017-Aug-16 12:30N 59°26' E 018°28'911.3
2017-Aug-16 11:45N 59°23' E 018°43'1 2.2
2017-Aug-16 11:28N 59°23' E 018°44'2 3.4
2017-Aug-16 11:01N 59°23' E 018°47'3 5.8
2017-Aug-16 10:30N 59°24' E 018°53'3 5.6
2017-Aug-16 10:01N 59°27' E 018°55'4 7.5
2017-Aug-16 09:31N 59°29' E 018°50'3 5.4
2017-Aug-16 09:00N 59°29' E 018°44'5 9.0
2017-Aug-16 08:30N 59°27' E 018°36'5 7.7
2017-Aug-16 07:50N 59°25' E 018°26'3 8.8
2017-Aug-16 07:30N 59°24' E 018°21'5 9.4
2017-Aug-16 07:00N 59°21' E 018°15'510.7
2017-Aug-16 06:30N 59°20' E 018°04'0 0.1
2017-Aug-16 06:00N 59°20' E 018°05'0 0.0
2017-Aug-16 05:31N 59°20' E 018°05'0 0.0
2017-Aug-16 05:01N 59°20' E 018°05'0 0.0
2017-Aug-16 04:30N 59°20' E 018°05'0 0.0
2017-Aug-16 04:00N 59°20' E 018°05'0 0.0
2017-Aug-16 03:31N 59°20' E 018°05'0 0.0
2017-Aug-16 03:00N 59°20' E 018°05'0 0.0
2017-Aug-16 02:30N 59°20' E 018°05'0 0.0
2017-Aug-16 02:01N 59°20' E 018°05'0 0.0
2017-Aug-16 01:31N 59°20' E 018°05'0 0.0
2017-Aug-16 01:01N 59°20' E 018°05'0 0.0
2017-Aug-16 00:31N 59°20' E 018°05'0 0.0
2017-Aug-16 00:00N 59°20' E 018°05'0 0.0
2017-Aug-15 23:31N 59°20' E 018°05'0 0.0
2017-Aug-15 23:01N 59°20' E 018°05'0 0.0
2017-Aug-15 22:30N 59°20' E 018°05'0 0.0
2017-Aug-15 22:01N 59°20' E 018°05'0 0.0
2017-Aug-15 21:30N 59°20' E 018°05'0 0.0
2017-Aug-15 21:00N 59°20' E 018°05'0 0.0
2017-Aug-15 20:30N 59°20' E 018°05'5 9.1
2017-Aug-15 20:00N 59°20' E 018°13'511.0
2017-Aug-15 19:31N 59°24' E 018°21'4 7.6
2017-Aug-15 19:00N 59°25' E 018°28'510.5
2017-Aug-15 18:31N 59°26' E 018°39'2 3.6
2017-Aug-15 18:00N 59°26' E 018°42'5 9.1
2017-Aug-15 17:31N 59°29' E 018°50'3 5.7
2017-Aug-15 17:01N 59°29' E 018°44'4 7.9
2017-Aug-15 16:30N 59°28' E 018°37'4 7.3
2017-Aug-15 16:00N 59°26' E 018°31'5 9.9
2017-Aug-15 15:30N 59°24' E 018°21'5 9.3
2017-Aug-15 15:00N 59°21' E 018°15'510.7
2017-Aug-15 14:31N 59°20' E 018°04'0 0.1
2017-Aug-15 14:01N 59°20' E 018°04'0 0.0
2017-Aug-15 13:31N 59°20' E 018°04'0 0.0
2017-Aug-15 13:01N 59°20' E 018°04'0 0.0
2017-Aug-15 12:31N 59°20' E 018°04'0 0.0
2017-Aug-15 12:01N 59°20' E 018°04'0 0.0
2017-Aug-15 11:30N 59°20' E 018°04'0 0.0
2017-Aug-15 11:01N 59°20' E 018°04'0 0.0
2017-Aug-15 10:30N 59°20' E 018°04'0 0.0
2017-Aug-15 10:01N 59°20' E 018°04'0 0.0
2017-Aug-15 09:30N 59°20' E 018°04'0 0.0
2017-Aug-15 09:00N 59°20' E 018°04'0 0.0
2017-Aug-15 08:30N 59°20' E 018°04'3 5.3
2017-Aug-15 08:01N 59°19' E 018°10'612.1
2017-Aug-15 07:30N 59°22' E 018°20'3 6.5
2017-Aug-15 07:00N 59°25' E 018°22'4 8.5
2017-Aug-15 06:30N 59°25' E 018°30'712.4
2017-Aug-15 05:55N 59°23' E 018°44'2 5.8
2017-Aug-15 05:31N 59°24' E 018°47'3 5.9
2017-Aug-15 05:00N 59°23' E 018°52'4 7.1
2017-Aug-15 04:30N 59°26' E 018°56'0 0.8
2017-Aug-15 04:00N 59°27' E 018°55'0 0.0
2017-Aug-15 03:30N 59°27' E 018°55'0 0.0
2017-Aug-15 03:00N 59°27' E 018°55'0 0.0
2017-Aug-15 02:30N 59°27' E 018°55'0 0.0
2017-Aug-15 02:00N 59°27' E 018°55'0 0.0
2017-Aug-15 01:30N 59°27' E 018°55'0 0.0
2017-Aug-15 01:00N 59°27' E 018°55'0 0.0
2017-Aug-15 00:30N 59°27' E 018°55'0 0.0
2017-Aug-15 00:00N 59°27' E 018°55'0 0.0
2017-Aug-14 23:30N 59°27' E 018°55'0 0.0
2017-Aug-14 23:00N 59°27' E 018°55'0 0.0
2017-Aug-14 22:30N 59°27' E 018°55'0 0.0
2017-Aug-14 22:00N 59°27' E 018°55'0 0.0
2017-Aug-14 21:30N 59°27' E 018°55'0 0.0
2017-Aug-14 21:00N 59°27' E 018°55'0 0.0
2017-Aug-14 20:30N 59°27' E 018°55'0 0.0
2017-Aug-14 20:01N 59°27' E 018°55'0 0.0
2017-Aug-14 19:30N 59°27' E 018°55'0 0.0
2017-Aug-14 19:00N 59°27' E 018°55'0 0.0
2017-Aug-14 18:30N 59°27' E 018°55'0 0.0
2017-Aug-14 18:00N 59°27' E 018°55'0 0.0
2017-Aug-14 17:30N 59°27' E 018°55'1 2.4
2017-Aug-14 17:01N 59°25' E 018°55'3 6.3
2017-Aug-14 16:31N 59°22' E 018°53'3 6.4
2017-Aug-14 16:01N 59°24' E 018°47'3 5.1
2017-Aug-14 15:30N 59°24' E 018°42'713.5
2017-Aug-14 15:00N 59°25' E 018°29'4 8.5
2017-Aug-14 14:30N 59°24' E 018°21'5 9.4
2017-Aug-14 14:00N 59°21' E 018°15'510.5
2017-Aug-14 13:30N 59°20' E 018°04'0 0.1
2017-Aug-14 13:00N 59°20' E 018°05'3 5.3
2017-Aug-14 12:30N 59°19' E 018°10'612.3
2017-Aug-14 12:00N 59°22' E 018°21'4 7.1
2017-Aug-14 11:30N 59°25' E 018°21'4 8.2
2017-Aug-14 11:00N 59°28' E 018°27'3 6.1
2017-Aug-14 10:30N 59°30' E 018°32'1 3.0
2017-Aug-14 10:00N 59°29' E 018°30'3 5.5
2017-Aug-14 09:30N 59°28' E 018°25'4 8.3
2017-Aug-14 09:00N 59°24' E 018°21'3 5.2
2017-Aug-14 08:30N 59°22' E 018°19'612.3
2017-Aug-14 08:00N 59°19' E 018°09'2 4.5
2017-Aug-14 07:31N 59°20' E 018°04'0 0.0
2017-Aug-14 07:01N 59°20' E 018°04'0 0.0
2017-Aug-14 06:31N 59°20' E 018°04'0 0.0
2017-Aug-14 06:00N 59°20' E 018°04'3 6.4
2017-Aug-14 05:31N 59°20' E 018°11'510.4
2017-Aug-14 05:00N 59°23' E 018°19'2 4.2
2017-Aug-14 04:30N 59°24' E 018°22'3 5.4
2017-Aug-14 04:01N 59°22' E 018°27'3 6.7
2017-Aug-14 03:30N 59°24' E 018°21'0 0.0
2017-Aug-14 03:00N 59°24' E 018°21'0 0.0
2017-Aug-14 02:30N 59°24' E 018°21'0 0.0
2017-Aug-14 02:00N 59°24' E 018°21'0 0.0
2017-Aug-14 01:29N 59°24' E 018°21'0 0.0
2017-Aug-14 01:00N 59°24' E 018°21'0 0.0
2017-Aug-14 00:30N 59°24' E 018°21'0 0.0
2017-Aug-14 00:00N 59°24' E 018°21'0 0.0
2017-Aug-13 23:30N 59°24' E 018°21'0 0.0
2017-Aug-13 23:00N 59°24' E 018°21'0 0.0
2017-Aug-13 22:30N 59°24' E 018°21'0 0.0
2017-Aug-13 22:00N 59°24' E 018°21'0 0.0
2017-Aug-13 21:30N 59°24' E 018°21'0 0.0
2017-Aug-13 21:00N 59°24' E 018°21'0 0.0
2017-Aug-13 20:30N 59°24' E 018°21'2 4.2
2017-Aug-13 20:00N 59°23' E 018°18'815.2
2017-Aug-13 19:30N 59°19' E 018°05'3 6.8
2017-Aug-13 19:00N 59°20' E 018°11'611.9
2017-Aug-13 18:30N 59°24' E 018°21'  

Dump ship's entire track history